createdAt,value
2017-08-29T00:01:17.033Z,22.20
2017-08-29T00:06:19.408Z,24.90
2017-08-29T00:11:21.096Z,19.07
2017-08-29T00:16:23.156Z,14.40
2017-08-29T00:21:24.825Z,16.57
2017-08-29T00:26:26.624Z,17.70
2017-08-29T00:31:28.381Z,17.73
2017-08-29T00:36:30.072Z,19.87
2017-08-29T00:41:32.170Z,16.00
2017-08-29T00:46:33.905Z,17.07
2017-08-29T00:51:35.705Z,20.10
2017-08-29T00:56:37.358Z,18.80
2017-08-29T01:01:38.974Z,20.63
2017-08-29T01:06:40.725Z,18.07
2017-08-29T01:11:42.396Z,21.13
2017-08-29T01:16:44.606Z,20.23
2017-08-29T01:21:46.337Z,18.23
2017-08-29T01:26:48.027Z,18.87
2017-08-29T01:31:49.802Z,15.80
2017-08-29T01:36:51.447Z,19.77
2017-08-29T01:41:53.248Z,20.23
2017-08-29T01:46:54.899Z,16.50
2017-08-29T01:51:56.594Z,16.40
2017-08-29T01:56:58.985Z,16.60
2017-08-29T02:02:00.629Z,19.70
2017-08-29T02:07:02.430Z,20.83
2017-08-29T02:12:04.080Z,15.17
2017-08-29T02:17:05.754Z,16.83
2017-08-29T02:22:07.425Z,17.90
2017-08-29T02:27:09.811Z,13.50
2017-08-29T02:32:11.511Z,14.70
2017-08-29T02:37:28.051Z,15.60
2017-08-29T02:42:44.397Z,17.57
2017-08-29T02:48:01.254Z,16.07
2017-08-29T02:53:02.950Z,13.33
2017-08-29T02:58:04.726Z,14.03
2017-08-29T03:03:21.080Z,15.43
2017-08-29T03:08:37.610Z,13.67
2017-08-29T03:13:54.329Z,12.43
2017-08-29T03:18:55.934Z,14.70
2017-08-29T03:23:57.615Z,15.73
2017-08-29T03:28:59.284Z,23.20
2017-08-29T03:34:00.922Z,14.03
2017-08-29T03:39:02.652Z,16.17
2017-08-29T03:44:05.490Z,14.50
2017-08-29T03:49:07.200Z,12.47
2017-08-29T03:54:08.875Z,15.67
2017-08-29T03:59:10.671Z,21.40
2017-08-29T04:04:12.343Z,18.40
2017-08-29T04:09:16.632Z,26.40
2017-08-29T04:14:20.816Z,20.73
2017-08-29T04:19:23.138Z,19.60
2017-08-29T04:24:25.902Z,22.57
2017-08-29T04:29:27.567Z,19.47
2017-08-29T04:34:30.304Z,22.37
2017-08-29T04:39:32.729Z,29.80
2017-08-29T04:44:34.372Z,27.50
2017-08-29T04:49:36.385Z,22.47
2017-08-29T04:54:38.902Z,25.30
2017-08-29T04:59:41.236Z,25.00
2017-08-29T05:04:43.062Z,26.60
2017-08-29T05:09:44.837Z,26.27
2017-08-29T05:14:47.166Z,24.00
2017-08-29T05:19:48.900Z,20.43
2017-08-29T05:24:51.290Z,21.83
2017-08-29T05:29:52.961Z,20.80
2017-08-29T05:34:54.741Z,22.30
2017-08-29T05:39:56.409Z,22.83
2017-08-29T05:45:00.005Z,24.80
2017-08-29T05:50:02.903Z,22.23
2017-08-29T05:55:05.149Z,20.73
2017-08-29T06:00:06.766Z,20.37
2017-08-29T06:05:08.562Z,20.07
2017-08-29T06:10:10.933Z,18.80
2017-08-29T06:15:12.603Z,26.40
2017-08-29T06:20:14.376Z,19.00
2017-08-29T06:25:16.049Z,22.87
2017-08-29T06:30:17.828Z,17.73
2017-08-29T06:35:20.104Z,15.67
2017-08-29T06:40:22.280Z,18.23
2017-08-29T06:45:24.094Z,19.53
2017-08-29T06:50:25.667Z,17.60
2017-08-29T06:55:27.247Z,18.70
2017-08-29T07:00:28.808Z,19.87
2017-08-29T07:05:30.360Z,16.93
2017-08-29T07:10:31.937Z,17.13
2017-08-29T07:15:33.561Z,17.90
2017-08-29T07:20:35.137Z,16.33
2017-08-29T07:25:36.758Z,13.20
2017-08-29T07:30:38.332Z,21.70
2017-08-29T07:35:39.906Z,19.13
2017-08-29T07:40:41.521Z,13.90
2017-08-29T07:45:43.103Z,12.17
2017-08-29T07:50:44.712Z,20.63
2017-08-29T07:55:46.306Z,11.13
2017-08-29T08:00:47.922Z,10.93
2017-08-29T08:05:49.424Z,11.97
2017-08-29T08:10:51.049Z,12.83
2017-08-29T08:15:52.656Z,12.63
2017-08-29T08:20:54.226Z,9.73
2017-08-29T08:25:55.808Z,9.37
2017-08-29T08:30:57.385Z,10.00
2017-08-29T08:35:58.957Z,13.33
2017-08-29T08:41:00.533Z,8.80
2017-08-29T08:46:02.110Z,12.60
2017-08-29T08:51:03.676Z,10.57
2017-08-29T08:56:05.257Z,16.43
2017-08-29T09:01:06.893Z,9.20
2017-08-29T09:06:08.493Z,8.73
2017-08-29T09:11:10.072Z,15.50
2017-08-29T09:16:11.728Z,8.77
2017-08-29T09:21:13.324Z,13.33
2017-08-29T09:26:14.893Z,9.90
2017-08-29T09:31:16.456Z,7.40
2017-08-29T09:36:19.012Z,9.67
2017-08-29T09:41:20.552Z,14.83
2017-08-29T09:46:22.413Z,8.67
2017-08-29T09:51:23.982Z,9.73
2017-08-29T09:56:25.569Z,10.57
2017-08-29T10:01:27.129Z,10.70
2017-08-29T10:06:28.704Z,16.53
2017-08-29T10:11:30.266Z,12.00
2017-08-29T10:16:31.853Z,13.60
2017-08-29T10:21:33.441Z,12.87
2017-08-29T10:26:35.017Z,11.90
2017-08-29T10:31:36.550Z,11.47
2017-08-29T10:36:38.161Z,13.87
2017-08-29T10:41:39.729Z,17.40
2017-08-29T10:46:42.158Z,10.50
2017-08-29T10:51:43.756Z,22.93
2017-08-29T10:56:45.338Z,13.50
2017-08-29T11:01:46.908Z,11.13
2017-08-29T11:06:48.488Z,12.60
2017-08-29T11:11:50.066Z,15.80
2017-08-29T11:16:51.637Z,16.63
2017-08-29T11:21:53.208Z,13.90
2017-08-29T11:26:54.821Z,12.37
2017-08-29T11:31:56.437Z,14.87
2017-08-29T11:36:58.054Z,12.43
2017-08-29T11:41:59.685Z,12.80
2017-08-29T11:47:01.320Z,12.30
2017-08-29T11:52:02.943Z,11.53
2017-08-29T11:57:04.552Z,13.80
2017-08-29T12:02:06.175Z,13.03
2017-08-29T12:07:07.789Z,13.73
2017-08-29T12:12:09.800Z,12.27
2017-08-29T12:17:11.365Z,11.50
2017-08-29T12:22:12.942Z,11.60
2017-08-29T12:27:14.525Z,17.53
2017-08-29T12:32:16.084Z,11.73
2017-08-29T12:37:17.664Z,14.53
2017-08-29T12:42:19.242Z,11.33
2017-08-29T12:47:20.874Z,10.60
2017-08-29T12:52:22.445Z,11.63
2017-08-29T12:57:24.021Z,11.57
2017-08-29T13:02:25.592Z,13.40
2017-08-29T13:07:27.165Z,17.03
2017-08-29T13:12:28.789Z,11.70
2017-08-29T13:17:30.357Z,13.47
2017-08-29T13:22:31.991Z,12.40
2017-08-29T13:27:33.613Z,11.47
2017-08-29T13:32:35.213Z,10.53
2017-08-29T13:37:36.832Z,10.20
2017-08-29T13:42:38.352Z,16.20
2017-08-29T13:47:39.930Z,10.80
2017-08-29T13:52:41.459Z,11.60
2017-08-29T13:57:43.035Z,12.03
2017-08-29T14:02:44.613Z,10.20
2017-08-29T14:07:46.195Z,10.00
2017-08-29T14:12:48.053Z,10.03
2017-08-29T14:17:49.625Z,10.53
2017-08-29T14:22:51.185Z,9.90
2017-08-29T14:27:52.756Z,13.13
2017-08-29T14:32:54.361Z,11.97
2017-08-29T14:37:55.928Z,12.20
2017-08-29T14:42:57.511Z,10.30
2017-08-29T14:48:11.069Z,9.93
2017-08-29T14:53:12.637Z,13.00
2017-08-29T14:58:14.200Z,9.77
2017-08-29T15:03:15.765Z,12.40
2017-08-29T15:08:17.329Z,11.43
2017-08-29T15:13:18.892Z,12.10
2017-08-29T15:18:20.453Z,11.50
2017-08-29T15:23:22.019Z,9.80
2017-08-29T15:28:23.591Z,10.50
2017-08-29T15:33:25.155Z,12.10
2017-08-29T15:38:26.730Z,12.10
2017-08-29T15:43:28.301Z,10.50
2017-08-29T15:48:29.867Z,11.17
2017-08-29T15:53:31.433Z,12.40
2017-08-29T15:58:33.001Z,12.63
2017-08-29T16:03:34.571Z,10.13
2017-08-29T16:08:36.161Z,10.37
2017-08-29T16:13:37.744Z,9.60
2017-08-29T16:18:39.315Z,11.13
2017-08-29T16:23:40.885Z,11.57
2017-08-29T16:28:42.460Z,9.67
2017-08-29T16:33:44.159Z,13.20
2017-08-29T16:38:45.825Z,9.77
2017-08-29T16:43:47.501Z,9.70
2017-08-29T16:48:49.168Z,10.73
2017-08-29T16:53:50.852Z,11.17
2017-08-29T16:58:52.508Z,12.67
2017-08-29T17:03:54.177Z,16.23
2017-08-29T17:08:55.912Z,11.30
2017-08-29T17:13:57.592Z,25.73
2017-08-29T17:18:59.347Z,11.20
2017-08-29T17:24:01.021Z,13.37
2017-08-29T17:29:02.686Z,16.50
2017-08-29T17:34:04.490Z,13.30
2017-08-29T17:39:06.365Z,14.13
2017-08-29T17:44:08.014Z,14.50
2017-08-29T17:49:09.711Z,16.40
2017-08-29T17:54:11.361Z,14.33
2017-08-29T17:59:13.057Z,19.83
2017-08-29T18:04:14.730Z,15.60
2017-08-29T18:09:16.378Z,15.10
2017-08-29T18:14:18.077Z,12.70
2017-08-29T18:19:19.749Z,15.97
2017-08-29T18:24:21.502Z,19.00
2017-08-29T18:29:24.198Z,14.10
2017-08-29T18:34:26.740Z,14.43
2017-08-29T18:39:29.288Z,13.20
2017-08-29T18:44:31.183Z,15.53
2017-08-29T18:49:35.689Z,13.00
2017-08-29T18:54:37.478Z,15.80
2017-08-29T18:59:39.458Z,20.67
2017-08-29T19:04:41.153Z,16.17
2017-08-29T19:09:44.542Z,16.83
2017-08-29T19:14:46.449Z,15.33
2017-08-29T19:19:48.119Z,11.43
2017-08-29T19:24:49.801Z,15.07
2017-08-29T19:29:51.442Z,17.10
2017-08-29T19:34:53.240Z,12.60
2017-08-29T19:39:54.872Z,13.47
2017-08-29T19:44:56.557Z,11.93
2017-08-29T19:49:58.564Z,15.70
2017-08-29T19:55:00.209Z,11.07
2017-08-29T20:00:03.148Z,11.40
2017-08-29T20:05:04.789Z,13.40
2017-08-29T20:10:07.199Z,11.90
2017-08-29T20:15:08.809Z,14.20
2017-08-29T20:20:10.443Z,18.70
2017-08-29T20:25:12.089Z,13.53
2017-08-29T20:30:13.790Z,11.43
2017-08-29T20:35:15.409Z,15.03
2017-08-29T20:40:17.003Z,11.70
2017-08-29T20:45:18.886Z,11.03
2017-08-29T20:50:20.634Z,13.13
2017-08-29T20:55:22.358Z,11.87
2017-08-29T21:00:24.133Z,13.27
2017-08-29T21:05:25.755Z,20.60
2017-08-29T21:10:27.661Z,12.40
2017-08-29T21:15:29.439Z,12.07
2017-08-29T21:20:31.734Z,12.37
2017-08-29T21:25:33.521Z,22.83
2017-08-29T21:30:35.798Z,12.63
2017-08-29T21:35:37.526Z,11.40
2017-08-29T21:40:39.233Z,13.20
2017-08-29T21:45:40.877Z,16.60
2017-08-29T21:50:42.425Z,14.00
2017-08-29T21:55:44.587Z,13.33
2017-08-29T22:00:46.544Z,13.93
2017-08-29T22:05:48.218Z,12.87
2017-08-29T22:10:49.914Z,12.50
2017-08-29T22:15:52.189Z,12.40
2017-08-29T22:20:53.846Z,17.83
2017-08-29T22:25:55.581Z,13.20
2017-08-29T22:30:57.291Z,14.17
2017-08-29T22:35:58.988Z,15.20
2017-08-29T22:41:00.637Z,15.33
2017-08-29T22:46:02.335Z,15.43
2017-08-29T22:51:03.983Z,25.37
2017-08-29T22:56:05.680Z,17.80
2017-08-29T23:01:07.640Z,20.97
2017-08-29T23:06:09.536Z,24.57
2017-08-29T23:11:11.209Z,21.20
2017-08-29T23:16:12.882Z,24.63
2017-08-29T23:21:14.554Z,25.60
2017-08-29T23:26:18.681Z,28.50
2017-08-29T23:31:21.352Z,23.27
2017-08-29T23:36:23.264Z,21.07
2017-08-29T23:41:25.036Z,24.10
2017-08-29T23:46:26.684Z,22.33
2017-08-29T23:51:28.388Z,21.80
2017-08-29T23:56:30.053Z,20.97
